AXB5785 VABB-VECC
Flight info
| Callsign | AXB5785 |
|---|---|
| Flight time | 1h 56m |
| Altitude | 37000 |
| Route | ALBAP2B NONEN Q19 KAMLO W108 NNP G450 JJS JJS2A |
| Aircraft | B38M/M-SDE1FGHILORVWXY/HB1 |
Departure
| Time | 2026-05-06 20:35 |
|---|---|
| Airport | Chhatrapati Shivaji Maharaj International Airport (VABB) |
Arrival
| Time | 2026-05-06 22:31 |
|---|---|
| Airport | Netaji Subhash Chandra Bose International Airport (VECC) |
| Time | Latitude | Longitude | Altitude | Speed | Heading |
|---|---|---|---|---|---|
| 2026-05-06 19:52 | 19.09683 | 72.87621 | 36 ft | 0 kts | 270° |
| 2026-05-06 20:17 | 19.09683 | 72.87635 | 36 ft | 4 kts | 269° |
| 2026-05-06 20:17 | 19.09684 | 72.87664 | 36 ft | 4 kts | 265° |
| 2026-05-06 20:18 | 19.09688 | 72.87692 | 35 ft | 4 kts | 252° |
| 2026-05-06 20:18 | 19.09700 | 72.87711 | 33 ft | 4 kts | 196° |
| 2026-05-06 20:18 | 19.09705 | 72.87711 | 32 ft | 1 kts | 130° |
| 2026-05-06 20:18 | 19.09707 | 72.87709 | 33 ft | 0 kts | 130° |
| 2026-05-06 20:22 | 19.09706 | 72.87710 | 32 ft | 1 kts | 130° |
| 2026-05-06 20:22 | 19.09697 | 72.87721 | 33 ft | 3 kts | 130° |
| 2026-05-06 20:22 | 19.09677 | 72.87746 | 36 ft | 6 kts | 130° |
| 2026-05-06 20:22 | 19.09646 | 72.87785 | 36 ft | 8 kts | 130° |
| 2026-05-06 20:23 | 19.09604 | 72.87836 | 36 ft | 10 kts | 139° |
| 2026-05-06 20:23 | 19.09538 | 72.87837 | 36 ft | 11 kts | 200° |
| 2026-05-06 20:23 | 19.09466 | 72.87799 | 36 ft | 13 kts | 211° |
| 2026-05-06 20:23 | 19.09383 | 72.87746 | 36 ft | 15 kts | 206° |
| 2026-05-06 20:24 | 19.09306 | 72.87708 | 36 ft | 0 kts | 211° |
| 2026-05-06 20:24 | 19.09297 | 72.87702 | 36 ft | 3 kts | 212° |
| 2026-05-06 20:24 | 19.09273 | 72.87686 | 35 ft | 5 kts | 212° |
| 2026-05-06 20:24 | 19.09234 | 72.87673 | 34 ft | 6 kts | 183° |
| 2026-05-06 20:25 | 19.09182 | 72.87671 | 36 ft | 8 kts | 192° |
| 2026-05-06 20:25 | 19.09145 | 72.87624 | 36 ft | 10 kts | 262° |
| 2026-05-06 20:25 | 19.09142 | 72.87545 | 34 ft | 12 kts | 268° |
| 2026-05-06 20:25 | 19.09115 | 72.87460 | 35 ft | 13 kts | 214° |
| 2026-05-06 20:26 | 19.09056 | 72.87406 | 36 ft | 12 kts | 254° |
| 2026-05-06 20:26 | 19.09050 | 72.87312 | 36 ft | 14 kts | 267° |
| 2026-05-06 20:26 | 19.09047 | 72.87201 | 36 ft | 16 kts | 273° |
| 2026-05-06 20:26 | 19.09049 | 72.87077 | 36 ft | 18 kts | 266° |
| 2026-05-06 20:27 | 19.09045 | 72.86942 | 36 ft | 19 kts | 271° |
| 2026-05-06 20:27 | 19.09045 | 72.86794 | 37 ft | 21 kts | 269° |
| 2026-05-06 20:27 | 19.09042 | 72.86633 | 37 ft | 23 kts | 269° |
| 2026-05-06 20:27 | 19.09039 | 72.86457 | 38 ft | 25 kts | 265° |
| 2026-05-06 20:28 | 19.09039 | 72.86269 | 37 ft | 27 kts | 271° |
| 2026-05-06 20:28 | 19.09047 | 72.86059 | 35 ft | 29 kts | 269° |
| 2026-05-06 20:28 | 19.09031 | 72.85849 | 33 ft | 20 kts | 269° |
| 2026-05-06 20:28 | 19.09029 | 72.85693 | 32 ft | 22 kts | 269° |
| 2026-05-06 20:29 | 19.09027 | 72.85523 | 32 ft | 24 kts | 270° |
| 2026-05-06 20:29 | 19.09023 | 72.85337 | 31 ft | 26 kts | 268° |
| 2026-05-06 20:29 | 19.09021 | 72.85186 | 30 ft | 13 kts | 270° |
| 2026-05-06 20:29 | 19.09010 | 72.85085 | 30 ft | 15 kts | 255° |
| 2026-05-06 20:30 | 19.08977 | 72.84969 | 29 ft | 17 kts | 247° |
| 2026-05-06 20:30 | 19.08962 | 72.84950 | 29 ft | 0 kts | 217° |
| 2026-05-06 20:31 | 19.08958 | 72.84946 | 29 ft | 2 kts | 217° |
| 2026-05-06 20:31 | 19.08943 | 72.84937 | 29 ft | 3 kts | 205° |
| 2026-05-06 20:31 | 19.08929 | 72.84934 | 29 ft | 0 kts | 178° |
| 2026-05-06 20:32 | 19.08923 | 72.84934 | 29 ft | 2 kts | 178° |
| 2026-05-06 20:33 | 19.08902 | 72.84937 | 29 ft | 4 kts | 167° |
| 2026-05-06 20:33 | 19.08868 | 72.84958 | 29 ft | 7 kts | 134° |
| 2026-05-06 20:33 | 19.08846 | 72.85006 | 29 ft | 7 kts | 89° |
| 2026-05-06 20:33 | 19.08847 | 72.85018 | 29 ft | 0 kts | 88° |
| 2026-05-06 20:34 | 19.08847 | 72.85021 | 29 ft | 2 kts | 88° |
| 2026-05-06 20:34 | 19.08849 | 72.85156 | 30 ft | 52 kts | 89° |
| 2026-05-06 20:34 | 19.08858 | 72.85842 | 32 ft | 130 kts | 89° |
| 2026-05-06 20:34 | 19.08886 | 72.87055 | 108 ft | 195 kts | 86° |
| 2026-05-06 20:35 | 19.08919 | 72.88625 | 721 ft | 221 kts | 88° |
| 2026-05-06 20:35 | 19.08936 | 72.90266 | 1613 ft | 229 kts | 88° |
| 2026-05-06 20:35 | 19.08935 | 72.92026 | 1877 ft | 245 kts | 89° |
| 2026-05-06 20:35 | 19.08953 | 72.93846 | 2498 ft | 249 kts | 81° |
| 2026-05-06 20:36 | 19.09572 | 72.95521 | 3406 ft | 247 kts | 50° |
| 2026-05-06 20:36 | 19.10920 | 72.96636 | 4251 ft | 252 kts | 25° |
| 2026-05-06 20:36 | 19.12572 | 72.97263 | 4437 ft | 258 kts | 13° |
| 2026-05-06 20:36 | 19.14328 | 72.97780 | 4785 ft | 259 kts | 23° |
| 2026-05-06 20:37 | 19.15919 | 72.98716 | 5517 ft | 272 kts | 38° |
| 2026-05-06 20:37 | 19.17124 | 73.00317 | 6279 ft | 283 kts | 63° |
| 2026-05-06 20:37 | 19.17935 | 73.02211 | 7080 ft | 287 kts | 64° |
| 2026-05-06 20:37 | 19.18799 | 73.04149 | 8009 ft | 289 kts | 65° |
| 2026-05-06 20:38 | 19.19666 | 73.06068 | 8951 ft | 290 kts | 65° |
| 2026-05-06 20:38 | 19.20546 | 73.07995 | 9880 ft | 292 kts | 65° |
| 2026-05-06 20:38 | 19.21454 | 73.09972 | 10450 ft | 308 kts | 65° |
| 2026-05-06 20:38 | 19.22425 | 73.12066 | 10826 ft | 328 kts | 65° |
| 2026-05-06 20:39 | 19.23465 | 73.14306 | 11155 ft | 348 kts | 65° |
| 2026-05-06 20:39 | 19.24555 | 73.16657 | 11585 ft | 362 kts | 65° |
| 2026-05-06 20:39 | 19.25660 | 73.19045 | 12160 ft | 369 kts | 65° |
| 2026-05-06 20:39 | 19.26799 | 73.21520 | 12931 ft | 373 kts | 65° |
| 2026-05-06 20:40 | 19.27943 | 73.24003 | 13583 ft | 378 kts | 65° |
| 2026-05-06 20:40 | 19.29103 | 73.26523 | 14224 ft | 382 kts | 64° |
| 2026-05-06 20:40 | 19.30274 | 73.29069 | 14849 ft | 386 kts | 64° |
| 2026-05-06 20:40 | 19.31459 | 73.31650 | 15452 ft | 391 kts | 64° |
| 2026-05-06 20:41 | 19.32653 | 73.34250 | 16039 ft | 395 kts | 64° |
| 2026-05-06 20:41 | 19.33860 | 73.36880 | 16625 ft | 399 kts | 63° |
| 2026-05-06 20:41 | 19.35078 | 73.39535 | 17184 ft | 403 kts | 63° |
| 2026-05-06 20:41 | 19.36304 | 73.42211 | 17730 ft | 407 kts | 63° |
| 2026-05-06 20:42 | 19.37533 | 73.44890 | 18229 ft | 411 kts | 63° |
| 2026-05-06 20:42 | 19.38801 | 73.47657 | 18678 ft | 415 kts | 62° |
| 2026-05-06 20:42 | 19.40069 | 73.50427 | 19116 ft | 419 kts | 62° |
| 2026-05-06 20:42 | 19.41328 | 73.53178 | 19551 ft | 422 kts | 62° |
| 2026-05-06 20:43 | 19.42629 | 73.56023 | 19989 ft | 425 kts | 62° |
| 2026-05-06 20:43 | 19.43924 | 73.58855 | 20397 ft | 429 kts | 61° |
| 2026-05-06 20:43 | 19.45225 | 73.61703 | 20803 ft | 432 kts | 61° |
| 2026-05-06 20:43 | 19.46539 | 73.64578 | 21206 ft | 436 kts | 61° |
| 2026-05-06 20:44 | 19.47872 | 73.67500 | 21589 ft | 439 kts | 61° |
| 2026-05-06 20:44 | 19.49206 | 73.70424 | 22008 ft | 443 kts | 60° |
| 2026-05-06 20:44 | 19.50547 | 73.73365 | 22401 ft | 447 kts | 60° |
| 2026-05-06 20:44 | 19.51905 | 73.76344 | 22742 ft | 450 kts | 60° |
| 2026-05-06 20:45 | 19.53274 | 73.79350 | 23140 ft | 453 kts | 60° |
| 2026-05-06 20:45 | 19.54643 | 73.82356 | 23468 ft | 456 kts | 60° |
| 2026-05-06 20:45 | 19.56030 | 73.85408 | 23767 ft | 459 kts | 60° |
| 2026-05-06 20:45 | 19.57401 | 73.88422 | 24082 ft | 460 kts | 60° |
| 2026-05-06 20:46 | 19.58812 | 73.91525 | 24384 ft | 463 kts | 60° |
| 2026-05-06 20:46 | 19.60212 | 73.94608 | 24681 ft | 465 kts | 60° |
| 2026-05-06 20:46 | 19.61599 | 73.97663 | 24985 ft | 467 kts | 60° |
| 2026-05-06 20:46 | 19.63029 | 74.00813 | 25296 ft | 469 kts | 61° |
| 2026-05-06 20:47 | 19.64443 | 74.03929 | 25594 ft | 470 kts | 61° |
| 2026-05-06 20:47 | 19.65862 | 74.07060 | 25885 ft | 472 kts | 61° |
| 2026-05-06 20:47 | 19.67290 | 74.10211 | 26173 ft | 474 kts | 61° |
| 2026-05-06 20:47 | 19.68723 | 74.13376 | 26469 ft | 476 kts | 61° |
| 2026-05-06 20:48 | 19.70157 | 74.16545 | 26750 ft | 478 kts | 61° |
| 2026-05-06 20:48 | 19.71598 | 74.19731 | 27031 ft | 480 kts | 61° |
| 2026-05-06 20:48 | 19.73046 | 74.22935 | 27323 ft | 482 kts | 61° |
| 2026-05-06 20:48 | 19.74499 | 74.26151 | 27588 ft | 484 kts | 62° |
| 2026-05-06 20:49 | 19.75953 | 74.29370 | 27849 ft | 486 kts | 62° |
| 2026-05-06 20:49 | 19.77416 | 74.32614 | 28127 ft | 488 kts | 62° |
| 2026-05-06 20:49 | 19.78889 | 74.35881 | 28385 ft | 490 kts | 62° |
| 2026-05-06 20:49 | 19.80355 | 74.39133 | 28651 ft | 492 kts | 62° |
| 2026-05-06 20:50 | 19.81838 | 74.42426 | 28898 ft | 494 kts | 62° |
| 2026-05-06 20:50 | 19.83325 | 74.45730 | 29154 ft | 496 kts | 62° |
| 2026-05-06 20:50 | 19.84816 | 74.49042 | 29405 ft | 498 kts | 62° |
| 2026-05-06 20:50 | 19.86312 | 74.52369 | 29645 ft | 500 kts | 62° |
| 2026-05-06 20:51 | 19.87811 | 74.55707 | 29882 ft | 502 kts | 62° |
| 2026-05-06 20:51 | 19.89317 | 74.59058 | 30077 ft | 504 kts | 62° |
| 2026-05-06 20:51 | 19.90827 | 74.62424 | 30294 ft | 505 kts | 62° |
| 2026-05-06 20:51 | 19.92342 | 74.65801 | 30508 ft | 507 kts | 62° |
| 2026-05-06 20:52 | 19.93860 | 74.69188 | 30749 ft | 508 kts | 62° |
| 2026-05-06 20:52 | 19.95376 | 74.72574 | 31043 ft | 507 kts | 62° |
| 2026-05-06 20:52 | 19.96891 | 74.75956 | 31346 ft | 506 kts | 62° |
| 2026-05-06 20:52 | 19.98395 | 74.79317 | 31655 ft | 506 kts | 62° |
| 2026-05-06 20:53 | 19.99903 | 74.82693 | 31965 ft | 502 kts | 62° |
| 2026-05-06 20:53 | 20.01377 | 74.85995 | 31791 ft | 488 kts | 62° |
| 2026-05-06 20:53 | 20.02823 | 74.89236 | 31484 ft | 480 kts | 62° |
| 2026-05-06 20:53 | 20.03765 | 74.91345 | 31280 ft | 474 kts | 62° |
| 2026-05-06 20:54 | 20.05624 | 74.95515 | 30914 ft | 462 kts | 62° |
| 2026-05-06 20:54 | 20.06550 | 74.97592 | 30741 ft | 457 kts | 62° |
| 2026-05-06 20:54 | 20.07896 | 75.00612 | 30326 ft | 452 kts | 61° |
| 2026-05-06 20:54 | 20.09228 | 75.03603 | 30324 ft | 437 kts | 61° |
| 2026-05-06 20:55 | 20.10519 | 75.06506 | 31014 ft | 427 kts | 61° |
| 2026-05-06 20:55 | 20.11789 | 75.09360 | 31291 ft | 430 kts | 61° |
| 2026-05-06 20:55 | 20.13051 | 75.12199 | 31717 ft | 427 kts | 61° |
| 2026-05-06 20:55 | 20.14323 | 75.15059 | 31423 ft | 422 kts | 61° |
| 2026-05-06 20:56 | 20.15589 | 75.17906 | 30653 ft | 430 kts | 61° |
| 2026-05-06 20:56 | 20.16876 | 75.20804 | 30205 ft | 430 kts | 61° |
| 2026-05-06 20:56 | 20.18146 | 75.23665 | 30425 ft | 428 kts | 61° |
| 2026-05-06 20:56 | 20.19419 | 75.26535 | 30772 ft | 429 kts | 61° |
| 2026-05-06 20:57 | 20.20687 | 75.29396 | 31110 ft | 426 kts | 61° |
| 2026-05-06 20:57 | 20.21950 | 75.32246 | 31456 ft | 426 kts | 61° |
| 2026-05-06 20:57 | 20.23197 | 75.35061 | 31793 ft | 425 kts | 61° |
| 2026-05-06 20:57 | 20.24459 | 75.37912 | 32159 ft | 425 kts | 61° |
| 2026-05-06 20:58 | 20.25713 | 75.40745 | 32525 ft | 423 kts | 61° |
| 2026-05-06 20:58 | 20.28289 | 75.46569 | 32594 ft | 440 kts | 62° |
| 2026-05-06 20:58 | 20.29574 | 75.49539 | 32843 ft | 443 kts | 66° |
| 2026-05-06 20:59 | 20.30464 | 75.52696 | 33108 ft | 447 kts | 72° |
| 2026-05-06 20:59 | 20.31274 | 75.55839 | 33377 ft | 448 kts | 72° |
| 2026-05-06 20:59 | 20.32122 | 75.59048 | 33647 ft | 449 kts | 72° |
| 2026-05-06 20:59 | 20.32973 | 75.62254 | 33907 ft | 451 kts | 72° |
| 2026-05-06 21:00 | 20.33829 | 75.65472 | 34144 ft | 452 kts | 72° |
| 2026-05-06 21:00 | 20.34687 | 75.68698 | 34372 ft | 453 kts | 72° |
| 2026-05-06 21:00 | 20.35544 | 75.71929 | 34610 ft | 453 kts | 72° |
| 2026-05-06 21:00 | 20.36401 | 75.75154 | 34856 ft | 453 kts | 72° |
| 2026-05-06 21:01 | 20.37258 | 75.78386 | 35099 ft | 454 kts | 72° |
| 2026-05-06 21:01 | 20.38127 | 75.81668 | 35362 ft | 453 kts | 72° |
| 2026-05-06 21:01 | 20.38981 | 75.84896 | 35603 ft | 453 kts | 72° |
| 2026-05-06 21:01 | 20.39838 | 75.88133 | 35857 ft | 452 kts | 72° |
| 2026-05-06 21:02 | 20.40689 | 75.91354 | 36114 ft | 451 kts | 72° |
| 2026-05-06 21:02 | 20.41549 | 75.94608 | 36384 ft | 450 kts | 72° |
| 2026-05-06 21:02 | 20.42384 | 75.97773 | 36639 ft | 448 kts | 72° |
| 2026-05-06 21:02 | 20.43243 | 76.00965 | 36803 ft | 449 kts | 71° |
| 2026-05-06 21:03 | 20.44128 | 76.04171 | 36797 ft | 454 kts | 71° |
| 2026-05-06 21:03 | 20.45924 | 76.10673 | 36791 ft | 459 kts | 71° |
| 2026-05-06 21:04 | 20.47742 | 76.17261 | 36791 ft | 468 kts | 71° |
| 2026-05-06 21:04 | 20.49598 | 76.23998 | 36786 ft | 477 kts | 72° |
| 2026-05-06 21:05 | 20.51490 | 76.30881 | 36791 ft | 486 kts | 72° |
| 2026-05-06 21:05 | 20.53394 | 76.37816 | 36791 ft | 493 kts | 72° |
| 2026-05-06 21:06 | 20.55323 | 76.44855 | 36784 ft | 494 kts | 72° |
| 2026-05-06 21:06 | 20.57250 | 76.51897 | 36784 ft | 494 kts | 72° |
| 2026-05-06 21:07 | 20.59173 | 76.58940 | 36785 ft | 495 kts | 72° |
| 2026-05-06 21:07 | 20.61109 | 76.66038 | 36786 ft | 501 kts | 72° |
| 2026-05-06 21:08 | 20.63053 | 76.73183 | 36793 ft | 502 kts | 72° |
| 2026-05-06 21:08 | 20.64998 | 76.80341 | 36791 ft | 502 kts | 72° |
| 2026-05-06 21:09 | 20.66941 | 76.87504 | 36782 ft | 502 kts | 72° |
| 2026-05-06 21:09 | 20.68876 | 76.94651 | 36784 ft | 503 kts | 72° |
| 2026-05-06 21:10 | 20.70819 | 77.01845 | 36786 ft | 503 kts | 72° |
| 2026-05-06 21:10 | 20.72756 | 77.09022 | 36782 ft | 503 kts | 72° |
| 2026-05-06 21:11 | 20.74693 | 77.16218 | 36782 ft | 504 kts | 72° |
| 2026-05-06 21:11 | 20.76623 | 77.23400 | 36788 ft | 504 kts | 72° |
| 2026-05-06 21:12 | 20.78560 | 77.30617 | 36789 ft | 504 kts | 72° |
| 2026-05-06 21:12 | 20.80488 | 77.37816 | 36797 ft | 505 kts | 72° |
| 2026-05-06 21:13 | 20.82419 | 77.45036 | 36799 ft | 505 kts | 72° |
| 2026-05-06 21:13 | 20.84346 | 77.52256 | 36804 ft | 505 kts | 72° |
| 2026-05-06 21:14 | 20.86298 | 77.59484 | 36800 ft | 506 kts | 72° |
| 2026-05-06 21:14 | 20.88264 | 77.66684 | 36806 ft | 506 kts | 72° |
| 2026-05-06 21:15 | 20.90240 | 77.73927 | 36809 ft | 506 kts | 72° |
| 2026-05-06 21:15 | 20.92084 | 77.81178 | 36786 ft | 507 kts | 80° |
| 2026-05-06 21:16 | 20.93051 | 77.88665 | 36792 ft | 508 kts | 81° |
| 2026-05-06 21:16 | 20.94047 | 77.96162 | 36803 ft | 509 kts | 81° |
| 2026-05-06 21:17 | 20.95037 | 78.03643 | 36823 ft | 509 kts | 81° |
| 2026-05-06 21:17 | 20.96029 | 78.11159 | 36812 ft | 510 kts | 81° |
| 2026-05-06 21:18 | 20.97015 | 78.18662 | 36811 ft | 510 kts | 81° |
| 2026-05-06 21:18 | 20.98000 | 78.26175 | 36813 ft | 510 kts | 81° |
| 2026-05-06 21:19 | 20.98982 | 78.33701 | 36816 ft | 510 kts | 81° |
| 2026-05-06 21:19 | 20.99965 | 78.41260 | 36813 ft | 511 kts | 81° |
| 2026-05-06 21:20 | 21.00944 | 78.48807 | 36820 ft | 511 kts | 81° |
| 2026-05-06 21:20 | 21.01916 | 78.56335 | 36816 ft | 511 kts | 81° |
| 2026-05-06 21:21 | 21.02889 | 78.63887 | 36816 ft | 512 kts | 81° |
| 2026-05-06 21:21 | 21.03855 | 78.71424 | 36826 ft | 512 kts | 81° |
| 2026-05-06 21:22 | 21.04818 | 78.78961 | 36824 ft | 512 kts | 81° |
| 2026-05-06 21:22 | 21.05781 | 78.86520 | 36823 ft | 512 kts | 81° |
| 2026-05-06 21:23 | 21.06740 | 78.94077 | 36829 ft | 512 kts | 81° |
| 2026-05-06 21:23 | 21.07703 | 79.01690 | 36829 ft | 513 kts | 82° |
| 2026-05-06 21:24 | 21.09185 | 79.09190 | 36854 ft | 510 kts | 71° |
| 2026-05-06 21:24 | 21.11218 | 79.16428 | 36828 ft | 511 kts | 72° |
| 2026-05-06 21:25 | 21.13264 | 79.23795 | 36826 ft | 512 kts | 72° |
| 2026-05-06 21:25 | 21.15291 | 79.31105 | 36825 ft | 512 kts | 72° |
| 2026-05-06 21:26 | 21.17318 | 79.38431 | 36824 ft | 513 kts | 72° |
| 2026-05-06 21:26 | 21.19342 | 79.45755 | 36821 ft | 513 kts | 72° |
| 2026-05-06 21:27 | 21.21343 | 79.53013 | 36821 ft | 513 kts | 72° |
| 2026-05-06 21:27 | 21.23368 | 79.60371 | 36822 ft | 514 kts | 72° |
| 2026-05-06 21:28 | 21.25387 | 79.67719 | 36822 ft | 514 kts | 72° |
| 2026-05-06 21:28 | 21.27063 | 79.73831 | 36819 ft | 514 kts | 72° |
| 2026-05-06 21:29 | 21.29076 | 79.81182 | 36819 ft | 514 kts | 72° |
| 2026-05-06 21:29 | 21.31100 | 79.88588 | 36821 ft | 514 kts | 72° |
| 2026-05-06 21:30 | 21.33109 | 79.95953 | 36820 ft | 515 kts | 72° |
| 2026-05-06 21:30 | 21.35115 | 80.03320 | 36823 ft | 515 kts | 72° |
| 2026-05-06 21:31 | 21.37103 | 80.10635 | 36819 ft | 515 kts | 72° |
| 2026-05-06 21:31 | 21.39106 | 80.18021 | 36823 ft | 515 kts | 72° |
| 2026-05-06 21:32 | 21.41120 | 80.25461 | 36823 ft | 516 kts | 72° |
| 2026-05-06 21:32 | 21.44114 | 80.36544 | 36823 ft | 516 kts | 72° |
| 2026-05-06 21:33 | 21.46107 | 80.43943 | 36828 ft | 516 kts | 72° |
| 2026-05-06 21:33 | 21.48106 | 80.51373 | 36831 ft | 517 kts | 72° |
| 2026-05-06 21:34 | 21.50100 | 80.58796 | 36833 ft | 517 kts | 72° |
| 2026-05-06 21:34 | 21.52091 | 80.66213 | 36836 ft | 517 kts | 72° |
| 2026-05-06 21:35 | 21.54080 | 80.73631 | 36834 ft | 518 kts | 72° |
| 2026-05-06 21:35 | 21.56076 | 80.81087 | 36834 ft | 519 kts | 72° |
| 2026-05-06 21:36 | 21.58063 | 80.88525 | 36830 ft | 518 kts | 72° |
| 2026-05-06 21:36 | 21.60063 | 80.96024 | 36831 ft | 519 kts | 72° |
| 2026-05-06 21:37 | 21.62045 | 81.03471 | 36832 ft | 519 kts | 72° |
| 2026-05-06 21:37 | 21.64028 | 81.10940 | 36827 ft | 519 kts | 72° |
| 2026-05-06 21:38 | 21.66008 | 81.18406 | 36827 ft | 520 kts | 72° |
| 2026-05-06 21:38 | 21.67984 | 81.25874 | 36818 ft | 520 kts | 72° |
| 2026-05-06 21:39 | 21.69991 | 81.33347 | 36817 ft | 520 kts | 72° |
| 2026-05-06 21:39 | 21.72059 | 81.40851 | 36817 ft | 520 kts | 72° |
| 2026-05-06 21:40 | 21.74109 | 81.48299 | 36811 ft | 520 kts | 72° |
| 2026-05-06 21:40 | 21.76161 | 81.55769 | 36808 ft | 520 kts | 72° |
| 2026-05-06 21:41 | 21.78202 | 81.63243 | 36807 ft | 521 kts | 73° |
| 2026-05-06 21:41 | 21.80078 | 81.70778 | 36805 ft | 521 kts | 74° |
| 2026-05-06 21:42 | 21.81922 | 81.78304 | 36806 ft | 521 kts | 74° |
| 2026-05-06 21:42 | 21.83764 | 81.85839 | 36802 ft | 521 kts | 74° |
| 2026-05-06 21:43 | 21.85603 | 81.93379 | 36800 ft | 520 kts | 74° |
| 2026-05-06 21:43 | 21.87434 | 82.00925 | 36802 ft | 520 kts | 74° |
| 2026-05-06 21:44 | 21.89245 | 82.08463 | 36803 ft | 520 kts | 74° |
| 2026-05-06 21:44 | 21.91054 | 82.16013 | 36805 ft | 520 kts | 74° |
| 2026-05-06 21:45 | 21.92854 | 82.23545 | 36805 ft | 520 kts | 74° |
| 2026-05-06 21:45 | 21.94655 | 82.31098 | 36802 ft | 520 kts | 74° |
| 2026-05-06 21:46 | 21.96446 | 82.38620 | 36808 ft | 520 kts | 75° |
| 2026-05-06 21:46 | 21.98244 | 82.46189 | 36808 ft | 520 kts | 75° |
| 2026-05-06 21:47 | 22.00031 | 82.53737 | 36810 ft | 520 kts | 75° |
| 2026-05-06 21:47 | 22.01817 | 82.61293 | 36809 ft | 520 kts | 75° |
| 2026-05-06 21:48 | 22.03601 | 82.68853 | 36813 ft | 520 kts | 75° |
| 2026-05-06 21:48 | 22.05381 | 82.76411 | 36817 ft | 521 kts | 75° |
| 2026-05-06 21:49 | 22.07146 | 82.83929 | 36815 ft | 521 kts | 75° |
| 2026-05-06 21:49 | 22.08931 | 82.91545 | 36817 ft | 521 kts | 75° |
| 2026-05-06 21:50 | 22.10691 | 82.99067 | 36811 ft | 521 kts | 75° |
| 2026-05-06 21:50 | 22.12461 | 83.06653 | 36817 ft | 521 kts | 75° |
| 2026-05-06 21:51 | 22.14225 | 83.14230 | 36830 ft | 521 kts | 75° |
| 2026-05-06 21:51 | 22.15988 | 83.21819 | 36834 ft | 521 kts | 75° |
| 2026-05-06 21:52 | 22.17756 | 83.29446 | 36838 ft | 521 kts | 75° |
| 2026-05-06 21:52 | 22.19492 | 83.36989 | 36841 ft | 521 kts | 75° |
| 2026-05-06 21:53 | 22.21231 | 83.44583 | 36841 ft | 521 kts | 75° |
| 2026-05-06 21:53 | 22.22969 | 83.52183 | 36868 ft | 522 kts | 75° |
| 2026-05-06 21:54 | 22.24703 | 83.59792 | 36850 ft | 521 kts | 75° |
| 2026-05-06 21:54 | 22.26428 | 83.67369 | 36860 ft | 521 kts | 75° |
| 2026-05-06 21:55 | 22.28158 | 83.74990 | 36861 ft | 521 kts | 75° |
| 2026-05-06 21:55 | 22.29890 | 83.82642 | 36864 ft | 521 kts | 75° |
| 2026-05-06 21:56 | 22.31609 | 83.90250 | 36864 ft | 521 kts | 76° |
| 2026-05-06 21:56 | 22.33352 | 83.97832 | 36866 ft | 521 kts | 75° |
| 2026-05-06 21:57 | 22.35115 | 84.05444 | 36871 ft | 521 kts | 75° |
| 2026-05-06 21:57 | 22.36866 | 84.13026 | 36873 ft | 521 kts | 75° |
| 2026-05-06 21:58 | 22.38615 | 84.20617 | 36872 ft | 521 kts | 75° |
| 2026-05-06 21:58 | 22.40368 | 84.28237 | 36878 ft | 521 kts | 75° |
| 2026-05-06 21:59 | 22.42112 | 84.35842 | 36877 ft | 521 kts | 76° |
| 2026-05-06 21:59 | 22.43852 | 84.43445 | 36885 ft | 521 kts | 76° |
| 2026-05-06 22:00 | 22.45598 | 84.51091 | 36882 ft | 520 kts | 76° |
| 2026-05-06 22:00 | 22.47320 | 84.58649 | 36888 ft | 521 kts | 76° |
| 2026-05-06 22:01 | 22.49048 | 84.66249 | 36901 ft | 521 kts | 76° |
| 2026-05-06 22:01 | 22.51311 | 84.76185 | 36897 ft | 521 kts | 76° |
| 2026-05-06 22:02 | 22.54667 | 84.91429 | 36896 ft | 521 kts | 76° |
| 2026-05-06 22:02 | 22.57956 | 85.06677 | 36905 ft | 521 kts | 77° |
| 2026-05-06 22:03 | 22.61153 | 85.22402 | 36904 ft | 522 kts | 75° |
| 2026-05-06 22:03 | 22.64537 | 85.37695 | 36905 ft | 522 kts | 73° |
| 2026-05-06 22:04 | 22.67276 | 85.50505 | 36909 ft | 522 kts | 75° |
| 2026-05-06 22:04 | 22.70639 | 85.65784 | 36921 ft | 522 kts | 75° |
| 2026-05-06 22:05 | 22.72556 | 85.75302 | 36913 ft | 522 kts | 78° |
| 2026-05-06 22:05 | 22.74146 | 85.82977 | 36909 ft | 522 kts | 77° |
| 2026-05-06 22:06 | 22.76279 | 85.93184 | 36900 ft | 522 kts | 77° |
| 2026-05-06 22:06 | 22.79486 | 86.08500 | 36902 ft | 522 kts | 77° |
| 2026-05-06 22:07 | 22.84579 | 86.22934 | 36904 ft | 512 kts | 46° |
| 2026-05-06 22:07 | 22.87515 | 86.26882 | 36739 ft | 522 kts | 56° |
| 2026-05-06 22:07 | 22.89144 | 86.30444 | 36436 ft | 522 kts | 66° |
| 2026-05-06 22:08 | 22.90726 | 86.34014 | 36182 ft | 523 kts | 59° |
| 2026-05-06 22:08 | 22.92491 | 86.37408 | 35919 ft | 525 kts | 58° |
| 2026-05-06 22:08 | 22.94329 | 86.40834 | 35653 ft | 526 kts | 58° |
| 2026-05-06 22:08 | 22.96210 | 86.44284 | 35383 ft | 527 kts | 57° |
| 2026-05-06 22:09 | 22.98034 | 86.47734 | 35113 ft | 529 kts | 63° |
| 2026-05-06 22:09 | 22.99260 | 86.51513 | 34814 ft | 530 kts | 79° |
| 2026-05-06 22:09 | 22.99597 | 86.55488 | 34541 ft | 528 kts | 95° |
| 2026-05-06 22:09 | 22.99157 | 86.59440 | 34279 ft | 528 kts | 101° |
| 2026-05-06 22:10 | 22.98774 | 86.63406 | 34034 ft | 531 kts | 98° |
| 2026-05-06 22:10 | 22.98462 | 86.67403 | 33776 ft | 532 kts | 97° |
| 2026-05-06 22:10 | 22.98170 | 86.71402 | 33486 ft | 533 kts | 97° |
| 2026-05-06 22:10 | 22.97887 | 86.75410 | 33164 ft | 533 kts | 97° |
| 2026-05-06 22:11 | 22.97607 | 86.79399 | 32546 ft | 528 kts | 97° |
| 2026-05-06 22:11 | 22.97328 | 86.83368 | 31880 ft | 526 kts | 97° |
| 2026-05-06 22:11 | 22.97050 | 86.87313 | 31225 ft | 524 kts | 97° |
| 2026-05-06 22:11 | 22.96787 | 86.91251 | 30578 ft | 521 kts | 97° |
| 2026-05-06 22:12 | 22.96537 | 86.95169 | 29957 ft | 523 kts | 97° |
| 2026-05-06 22:12 | 22.96282 | 86.99127 | 29199 ft | 524 kts | 97° |
| 2026-05-06 22:12 | 22.96026 | 87.03068 | 28468 ft | 524 kts | 97° |
| 2026-05-06 22:12 | 22.95768 | 87.07014 | 27769 ft | 524 kts | 97° |
| 2026-05-06 22:13 | 22.95509 | 87.10952 | 27074 ft | 523 kts | 97° |
| 2026-05-06 22:13 | 22.95250 | 87.14888 | 26412 ft | 523 kts | 97° |
| 2026-05-06 22:13 | 22.94990 | 87.18820 | 25765 ft | 523 kts | 97° |
| 2026-05-06 22:13 | 22.94729 | 87.22755 | 25130 ft | 521 kts | 96° |
| 2026-05-06 22:14 | 22.94469 | 87.26659 | 24522 ft | 517 kts | 96° |
| 2026-05-06 22:14 | 22.94210 | 87.30524 | 23926 ft | 512 kts | 96° |
| 2026-05-06 22:14 | 22.93953 | 87.34348 | 23323 ft | 506 kts | 96° |
| 2026-05-06 22:14 | 22.93698 | 87.38135 | 22619 ft | 499 kts | 96° |
| 2026-05-06 22:15 | 22.93446 | 87.41857 | 21938 ft | 493 kts | 96° |
| 2026-05-06 22:15 | 22.93195 | 87.45553 | 21266 ft | 486 kts | 96° |
| 2026-05-06 22:15 | 22.92949 | 87.49179 | 20624 ft | 479 kts | 96° |
| 2026-05-06 22:15 | 22.92704 | 87.52760 | 19988 ft | 473 kts | 96° |
| 2026-05-06 22:16 | 22.92462 | 87.56291 | 19373 ft | 467 kts | 96° |
| 2026-05-06 22:16 | 22.92222 | 87.59787 | 18765 ft | 461 kts | 96° |
| 2026-05-06 22:16 | 22.91984 | 87.63235 | 18181 ft | 456 kts | 96° |
| 2026-05-06 22:16 | 22.91748 | 87.66640 | 17587 ft | 450 kts | 96° |
| 2026-05-06 22:17 | 22.91515 | 87.70013 | 17099 ft | 447 kts | 96° |
| 2026-05-06 22:17 | 22.91281 | 87.73357 | 16603 ft | 443 kts | 96° |
| 2026-05-06 22:17 | 22.91049 | 87.76683 | 16131 ft | 440 kts | 96° |
| 2026-05-06 22:17 | 22.90819 | 87.79972 | 15674 ft | 436 kts | 96° |
| 2026-05-06 22:18 | 22.90589 | 87.83245 | 15184 ft | 431 kts | 96° |
| 2026-05-06 22:18 | 22.90362 | 87.86466 | 14681 ft | 426 kts | 96° |
| 2026-05-06 22:18 | 22.90138 | 87.89640 | 14203 ft | 415 kts | 96° |
| 2026-05-06 22:18 | 22.89921 | 87.92701 | 13746 ft | 398 kts | 96° |
| 2026-05-06 22:19 | 22.89713 | 87.95642 | 13093 ft | 387 kts | 96° |
| 2026-05-06 22:19 | 22.89508 | 87.98523 | 12278 ft | 381 kts | 95° |
| 2026-05-06 22:19 | 22.89315 | 88.01370 | 11500 ft | 376 kts | 92° |
| 2026-05-06 22:19 | 22.89579 | 88.04170 | 10725 ft | 371 kts | 77° |
| 2026-05-06 22:20 | 22.90170 | 88.06867 | 9975 ft | 366 kts | 76° |
| 2026-05-06 22:20 | 22.90764 | 88.09526 | 9206 ft | 361 kts | 76° |
| 2026-05-06 22:20 | 22.91352 | 88.12158 | 8417 ft | 356 kts | 76° |
| 2026-05-06 22:20 | 22.91931 | 88.14755 | 7648 ft | 352 kts | 76° |
| 2026-05-06 22:21 | 22.92505 | 88.17321 | 6894 ft | 348 kts | 76° |
| 2026-05-06 22:21 | 22.93072 | 88.19857 | 6156 ft | 344 kts | 76° |
| 2026-05-06 22:21 | 22.93640 | 88.22365 | 5387 ft | 340 kts | 76° |
| 2026-05-06 22:21 | 22.94210 | 88.24846 | 4626 ft | 337 kts | 76° |
| 2026-05-06 22:22 | 22.94779 | 88.27286 | 3985 ft | 330 kts | 76° |
| 2026-05-06 22:22 | 22.95324 | 88.29603 | 3953 ft | 303 kts | 76° |
| 2026-05-06 22:22 | 22.95824 | 88.31720 | 3946 ft | 279 kts | 76° |
| 2026-05-06 22:22 | 22.96285 | 88.33673 | 3974 ft | 255 kts | 76° |
| 2026-05-06 22:23 | 22.96716 | 88.35489 | 3928 ft | 241 kts | 73° |
| 2026-05-06 22:23 | 22.97175 | 88.37208 | 3884 ft | 237 kts | 82° |
| 2026-05-06 22:23 | 22.97251 | 88.38980 | 3854 ft | 235 kts | 91° |
| 2026-05-06 22:23 | 22.97226 | 88.40756 | 3849 ft | 236 kts | 91° |
| 2026-05-06 22:24 | 22.97195 | 88.42530 | 3857 ft | 235 kts | 91° |
| 2026-05-06 22:24 | 22.97165 | 88.44305 | 3856 ft | 235 kts | 91° |
| 2026-05-06 22:24 | 22.96821 | 88.46019 | 3823 ft | 233 kts | 118° |
| 2026-05-06 22:24 | 22.95799 | 88.47343 | 3608 ft | 229 kts | 146° |
| 2026-05-06 22:25 | 22.94371 | 88.47962 | 3308 ft | 218 kts | 173° |
| 2026-05-06 22:25 | 22.92890 | 88.48013 | 3029 ft | 211 kts | 185° |
| 2026-05-06 22:25 | 22.91435 | 88.47854 | 2792 ft | 208 kts | 188° |
| 2026-05-06 22:25 | 22.89998 | 88.47673 | 2558 ft | 207 kts | 188° |
| 2026-05-06 22:26 | 22.88574 | 88.47501 | 2322 ft | 205 kts | 188° |
| 2026-05-06 22:26 | 22.87163 | 88.47332 | 2107 ft | 204 kts | 188° |
| 2026-05-06 22:26 | 22.85761 | 88.47165 | 2009 ft | 203 kts | 188° |
| 2026-05-06 22:26 | 22.84357 | 88.47000 | 1995 ft | 203 kts | 188° |
| 2026-05-06 22:27 | 22.82955 | 88.46835 | 2010 ft | 203 kts | 188° |
| 2026-05-06 22:27 | 22.81548 | 88.46669 | 2017 ft | 203 kts | 188° |
| 2026-05-06 22:27 | 22.80145 | 88.46504 | 2018 ft | 203 kts | 188° |
| 2026-05-06 22:27 | 22.78743 | 88.46338 | 2016 ft | 202 kts | 188° |
| 2026-05-06 22:28 | 22.77413 | 88.46182 | 1977 ft | 185 kts | 188° |
| 2026-05-06 22:28 | 22.76147 | 88.46033 | 1789 ft | 181 kts | 188° |
| 2026-05-06 22:28 | 22.74900 | 88.45886 | 1560 ft | 179 kts | 188° |
| 2026-05-06 22:28 | 22.73696 | 88.45745 | 1330 ft | 164 kts | 188° |
| 2026-05-06 22:29 | 22.72629 | 88.45619 | 1121 ft | 148 kts | 188° |
| 2026-05-06 22:29 | 22.71621 | 88.45501 | 932 ft | 144 kts | 187° |
| 2026-05-06 22:29 | 22.70619 | 88.45382 | 740 ft | 146 kts | 187° |
| 2026-05-06 22:29 | 22.69635 | 88.45267 | 578 ft | 147 kts | 187° |
| 2026-05-06 22:30 | 22.68606 | 88.45139 | 381 ft | 148 kts | 186° |
| 2026-05-06 22:30 | 22.67578 | 88.45017 | 113 ft | 148 kts | 185° |
| 2026-05-06 22:30 | 22.66628 | 88.44915 | 28 ft | 131 kts | 186° |
| 2026-05-06 22:30 | 22.65896 | 88.44828 | 31 ft | 72 kts | 186° |
| 2026-05-06 22:31 | 22.65585 | 88.44792 | 32 ft | 26 kts | 186° |
| 2026-05-06 22:31 | 22.65526 | 88.44785 | 31 ft | 4 kts | 186° |
| 2026-05-06 22:31 | 22.65446 | 88.44775 | 30 ft | 18 kts | 186° |
| 2026-05-06 22:31 | 22.65279 | 88.44755 | 30 ft | 29 kts | 186° |
| 2026-05-06 22:32 | 22.65066 | 88.44730 | 27 ft | 31 kts | 186° |
| 2026-05-06 22:32 | 22.64960 | 88.44693 | 27 ft | 16 kts | 211° |
| 2026-05-06 22:32 | 22.64859 | 88.44621 | 27 ft | 19 kts | 214° |
| 2026-05-06 22:32 | 22.64742 | 88.44536 | 27 ft | 21 kts | 213° |
| 2026-05-06 22:33 | 22.64616 | 88.44451 | 29 ft | 15 kts | 193° |
| 2026-05-06 22:33 | 22.64510 | 88.44448 | 29 ft | 17 kts | 180° |
| 2026-05-06 22:33 | 22.64387 | 88.44442 | 29 ft | 19 kts | 186° |
| 2026-05-06 22:33 | 22.64253 | 88.44426 | 30 ft | 18 kts | 186° |
| 2026-05-06 22:34 | 22.64176 | 88.44351 | 29 ft | 17 kts | 247° |
| 2026-05-06 22:34 | 22.64117 | 88.44296 | 29 ft | 0 kts | 187° |
| 2026-05-06 22:34 | 22.64104 | 88.44295 | 29 ft | 3 kts | 187° |
| 2026-05-06 22:35 | 22.64070 | 88.44290 | 29 ft | 7 kts | 188° |
| 2026-05-06 22:35 | 22.64024 | 88.44275 | 29 ft | 0 kts | 222° |
| 2026-05-06 22:35 | 22.64023 | 88.44271 | 29 ft | 2 kts | 246° |
| 2026-05-06 22:35 | 22.64021 | 88.44221 | 29 ft | 10 kts | 277° |
| 2026-05-06 22:36 | 22.64028 | 88.44132 | 29 ft | 12 kts | 261° |
| 2026-05-06 22:36 | 22.64001 | 88.44050 | 29 ft | 10 kts | 261° |
| 2026-05-06 22:36 | 22.63992 | 88.44011 | 29 ft | 0 kts | 291° |
| 2026-05-06 22:36 | 22.63996 | 88.44009 | 29 ft | 3 kts | 324° |
| 2026-05-06 22:37 | 22.64040 | 88.43986 | 29 ft | 10 kts | 332° |
| 2026-05-06 22:37 | 22.64065 | 88.43965 | 29 ft | 4 kts | 324° |
| 2026-05-06 22:37 | 22.64075 | 88.43962 | 29 ft | 0 kts | 341° |
| 2026-05-06 22:38 | 22.64080 | 88.43953 | 29 ft | 0 kts | 315° |